sensor_id;sensor_type;location;lat;lon;timestamp;pressure;altitude;pressure_sealevel;temperature;humidity
5954;BME280;3002;42.642;24.812;2022-10-15T00:00:04;96736.25;;;16.10;100.00
5954;BME280;3002;42.642;24.812;2022-10-15T00:02:29;96743.59;;;16.35;100.00
5954;BME280;3002;42.642;24.812;2022-10-15T00:04:55;96750.00;;;16.39;100.00
5954;BME280;3002;42.642;24.812;2022-10-15T00:07:21;96749.69;;;16.49;100.00
5954;BME280;3002;42.642;24.812;2022-10-15T00:09:47;96736.97;;;16.76;100.00
5954;BME280;3002;42.642;24.812;2022-10-15T00:12:12;96734.88;;;16.38;100.00
5954;BME280;3002;42.642;24.812;2022-10-15T00:14:38;96725.63;;;16.91;100.00
5954;BME280;3002;42.642;24.812;2022-10-15T00:17:06;96724.69;;;16.87;100.00
5954;BME280;3002;42.642;24.812;2022-10-15T00:19:32;96727.06;;;16.97;100.00
5954;BME280;3002;42.642;24.812;2022-10-15T00:21:58;96725.44;;;16.96;100.00
5954;BME280;3002;42.642;24.812;2022-10-15T00:24:23;96726.09;;;16.84;100.00
5954;BME280;3002;42.642;24.812;2022-10-15T00:26:49;96727.38;;;16.78;100.00
5954;BME280;3002;42.642;24.812;2022-10-15T00:29:14;96716.22;;;16.37;100.00
5954;BME280;3002;42.642;24.812;2022-10-15T00:31:40;96713.34;;;16.59;100.00
5954;BME280;3002;42.642;24.812;2022-10-15T00:34:05;96716.06;;;16.59;100.00
5954;BME280;3002;42.642;24.812;2022-10-15T00:36:33;96694.72;;;16.66;100.00
5954;BME280;3002;42.642;24.812;2022-10-15T00:38:59;96701.56;;;16.64;100.00
5954;BME280;3002;42.642;24.812;2022-10-15T00:41:34;96706.19;;;16.63;100.00
5954;BME280;3002;42.642;24.812;2022-10-15T00:47:17;96691.22;;;16.66;100.00
5954;BME280;3002;42.642;24.812;2022-10-15T00:49:53;96691.88;;;16.19;100.00
5954;BME280;3002;42.642;24.812;2022-10-15T00:55:18;96695.34;;;16.37;100.00
5954;BME280;3002;42.642;24.812;2022-10-15T00:57:46;96694.75;;;16.75;100.00
5954;BME280;3002;42.642;24.812;2022-10-15T01:00:14;96680.75;;;16.38;100.00
5954;BME280;3002;42.642;24.812;2022-10-15T01:02:41;96686.94;;;16.30;100.00
5954;BME280;3002;42.642;24.812;2022-10-15T01:05:07;96698.56;;;16.56;100.00
5954;BME280;3002;42.642;24.812;2022-10-15T01:07:33;96687.09;;;16.33;100.00
5954;BME280;3002;42.642;24.812;2022-10-15T01:09:59;96687.25;;;16.37;100.00
5954;BME280;3002;42.642;24.812;2022-10-15T01:15:20;96693.63;;;16.58;100.00
5954;BME280;3002;42.642;24.812;2022-10-15T01:17:51;96690.75;;;16.55;100.00
5954;BME280;3002;42.642;24.812;2022-10-15T01:31:28;96699.22;;;16.71;100.00
5954;BME280;3002;42.642;24.812;2022-10-15T01:36:39;96696.81;;;16.52;100.00
5954;BME280;3002;42.642;24.812;2022-10-15T01:39:13;96695.38;;;16.72;100.00
5954;BME280;3002;42.642;24.812;2022-10-15T01:41:44;96696.47;;;16.53;100.00
5954;BME280;3002;42.642;24.812;2022-10-15T01:47:00;96689.47;;;16.61;100.00
5954;BME280;3002;42.642;24.812;2022-10-15T01:49:32;96692.19;;;16.35;100.00
5954;BME280;3002;42.642;24.812;2022-10-15T01:52:03;96698.38;;;16.36;100.00
5954;BME280;3002;42.642;24.812;2022-10-15T01:54:30;96696.66;;;16.57;100.00
5954;BME280;3002;42.642;24.812;2022-10-15T01:56:57;96692.66;;;16.54;100.00
5954;BME280;3002;42.642;24.812;2022-10-15T01:59:27;96697.09;;;16.07;100.00
5954;BME280;3002;42.642;24.812;2022-10-15T02:01:54;96701.56;;;16.12;100.00
5954;BME280;3002;42.642;24.812;2022-10-15T02:04:22;96689.50;;;16.26;100.00
5954;BME280;3002;42.642;24.812;2022-10-15T02:06:56;96702.38;;;16.64;100.00
5954;BME280;3002;42.642;24.812;2022-10-15T02:17:41;96695.06;;;16.56;100.00
5954;BME280;3002;42.642;24.812;2022-10-15T02:23:20;96702.06;;;16.48;100.00
5954;BME280;3002;42.642;24.812;2022-10-15T02:25:47;96699.34;;;16.48;100.00
5954;BME280;3002;42.642;24.812;2022-10-15T02:28:16;96700.00;;;16.45;100.00
5954;BME280;3002;42.642;24.812;2022-10-15T02:30:45;96700.63;;;16.33;100.00
5954;BME280;3002;42.642;24.812;2022-10-15T02:33:13;96697.59;;;16.35;100.00
5954;BME280;3002;42.642;24.812;2022-10-15T02:35:41;96701.28;;;16.39;100.00
5954;BME280;3002;42.642;24.812;2022-10-15T02:38:09;96695.38;;;16.28;100.00
5954;BME280;3002;42.642;24.812;2022-10-15T02:40:38;96698.81;;;15.94;100.00
5954;BME280;3002;42.642;24.812;2022-10-15T02:43:07;96702.47;;;15.81;100.00
5954;BME280;3002;42.642;24.812;2022-10-15T02:45:35;96711.69;;;15.89;100.00
5954;BME280;3002;42.642;24.812;2022-10-15T02:48:01;96707.16;;;16.15;100.00
5954;BME280;3002;42.642;24.812;2022-10-15T02:50:26;96703.16;;;16.04;100.00
5954;BME280;3002;42.642;24.812;2022-10-15T02:52:52;96702.88;;;16.31;100.00
5954;BME280;3002;42.642;24.812;2022-10-15T02:55:17;96700.31;;;16.35;100.00
5954;BME280;3002;42.642;24.812;2022-10-15T02:57:43;96706.19;;;16.11;100.00
5954;BME280;3002;42.642;24.812;2022-10-15T03:00:08;96704.25;;;16.03;100.00
5954;BME280;3002;42.642;24.812;2022-10-15T03:02:34;96703.75;;;15.84;100.00
5954;BME280;3002;42.642;24.812;2022-10-15T03:04:59;96710.09;;;15.79;100.00
5954;BME280;3002;42.642;24.812;2022-10-15T03:07:25;96705.16;;;15.72;100.00
5954;BME280;3002;42.642;24.812;2022-10-15T03:09:50;96704.13;;;15.60;100.00
5954;BME280;3002;42.642;24.812;2022-10-15T03:12:16;96698.41;;;15.61;100.00
5954;BME280;3002;42.642;24.812;2022-10-15T03:14:41;96698.97;;;15.72;100.00
5954;BME280;3002;42.642;24.812;2022-10-15T03:17:07;96698.38;;;16.10;100.00
5954;BME280;3002;42.642;24.812;2022-10-15T03:19:32;96702.03;;;15.96;100.00
5954;BME280;3002;42.642;24.812;2022-10-15T03:21:58;96709.84;;;16.15;100.00
5954;BME280;3002;42.642;24.812;2022-10-15T03:24:23;96712.88;;;16.22;100.00
5954;BME280;3002;42.642;24.812;2022-10-15T03:26:49;96710.19;;;16.14;100.00
5954;BME280;3002;42.642;24.812;2022-10-15T03:29:14;96714.81;;;15.65;100.00
5954;BME280;3002;42.642;24.812;2022-10-15T03:31:40;96716.50;;;15.52;100.00
5954;BME280;3002;42.642;24.812;2022-10-15T03:34:05;96715.81;;;15.38;100.00
5954;BME280;3002;42.642;24.812;2022-10-15T03:36:30;96716.41;;;15.35;100.00
5954;BME280;3002;42.642;24.812;2022-10-15T03:38:56;96718.84;;;15.45;100.00
5954;BME280;3002;42.642;24.812;2022-10-15T03:41:21;96719.16;;;15.43;100.00
5954;BME280;3002;42.642;24.812;2022-10-15T03:43:47;96725.84;;;15.46;100.00
5954;BME280;3002;42.642;24.812;2022-10-15T03:46:12;96721.00;;;15.25;100.00
5954;BME280;3002;42.642;24.812;2022-10-15T03:48:38;96710.00;;;14.91;100.00
5954;BME280;3002;42.642;24.812;2022-10-15T03:51:03;96711.88;;;14.82;100.00
5954;BME280;3002;42.642;24.812;2022-10-15T03:53:29;96707.84;;;14.57;100.00
5954;BME280;3002;42.642;24.812;2022-10-15T03:55:54;96705.94;;;14.35;100.00
5954;BME280;3002;42.642;24.812;2022-10-15T03:58:20;96714.19;;;14.38;100.00
5954;BME280;3002;42.642;24.812;2022-10-15T04:00:45;96715.03;;;14.61;100.00
5954;BME280;3002;42.642;24.812;2022-10-15T04:03:11;96709.97;;;14.82;100.00
5954;BME280;3002;42.642;24.812;2022-10-15T04:05:36;96717.25;;;14.82;100.00
5954;BME280;3002;42.642;24.812;2022-10-15T04:08:03;96722.03;;;14.62;100.00
5954;BME280;3002;42.642;24.812;2022-10-15T04:10:28;96712.03;;;14.85;100.00
5954;BME280;3002;42.642;24.812;2022-10-15T04:12:54;96721.34;;;14.79;100.00
5954;BME280;3002;42.642;24.812;2022-10-15T04:15:20;96719.84;;;14.64;100.00
5954;BME280;3002;42.642;24.812;2022-10-15T04:17:45;96726.16;;;14.60;100.00
5954;BME280;3002;42.642;24.812;2022-10-15T04:20:11;96722.59;;;14.73;100.00
5954;BME280;3002;42.642;24.812;2022-10-15T04:22:36;96715.00;;;14.53;100.00
5954;BME280;3002;42.642;24.812;2022-10-15T04:25:03;96723.47;;;14.46;100.00
5954;BME280;3002;42.642;24.812;2022-10-15T04:27:28;96722.41;;;14.33;100.00
5954;BME280;3002;42.642;24.812;2022-10-15T04:29:54;96721.59;;;14.47;100.00
5954;BME280;3002;42.642;24.812;2022-10-15T04:32:19;96723.81;;;14.31;100.00
5954;BME280;3002;42.642;24.812;2022-10-15T04:34:46;96724.59;;;14.31;100.00
5954;BME280;3002;42.642;24.812;2022-10-15T04:37:11;96732.47;;;14.05;100.00
5954;BME280;3002;42.642;24.812;2022-10-15T04:39:37;96729.94;;;14.09;100.00
5954;BME280;3002;42.642;24.812;2022-10-15T04:42:02;96733.28;;;14.06;100.00
5954;BME280;3002;42.642;24.812;2022-10-15T04:44:28;96738.91;;;14.32;100.00
5954;BME280;3002;42.642;24.812;2022-10-15T04:46:53;96741.31;;;14.19;100.00
5954;BME280;3002;42.642;24.812;2022-10-15T04:49:19;96736.50;;;14.30;100.00
5954;BME280;3002;42.642;24.812;2022-10-15T04:51:44;96738.91;;;14.32;100.00
5954;BME280;3002;42.642;24.812;2022-10-15T04:54:10;96734.66;;;14.17;100.00
5954;BME280;3002;42.642;24.812;2022-10-15T04:56:35;96735.88;;;14.33;100.00
5954;BME280;3002;42.642;24.812;2022-10-15T04:59:05;96735.91;;;14.47;100.00
5954;BME280;3002;42.642;24.812;2022-10-15T05:01:30;96728.28;;;14.49;100.00
5954;BME280;3002;42.642;24.812;2022-10-15T05:03:56;96734.56;;;14.44;100.00
5954;BME280;3002;42.642;24.812;2022-10-15T05:06:22;96735.16;;;14.55;100.00
5954;BME280;3002;42.642;24.812;2022-10-15T05:08:48;96738.19;;;14.76;100.00
5954;BME280;3002;42.642;24.812;2022-10-15T05:11:20;96737.75;;;14.60;100.00
5954;BME280;3002;42.642;24.812;2022-10-15T05:13:46;96741.22;;;14.61;100.00
5954;BME280;3002;42.642;24.812;2022-10-15T05:16:15;96749.78;;;14.77;100.00
5954;BME280;3002;42.642;24.812;2022-10-15T05:18:42;96748.84;;;14.81;100.00
5954;BME280;3002;42.642;24.812;2022-10-15T05:21:08;96751.53;;;15.04;100.00
5954;BME280;3002;42.642;24.812;2022-10-15T05:23:34;96751.84;;;15.02;100.00
5954;BME280;3002;42.642;24.812;2022-10-15T05:26:02;96749.50;;;14.87;100.00
5954;BME280;3002;42.642;24.812;2022-10-15T05:28:29;96765.59;;;14.92;100.00
5954;BME280;3002;42.642;24.812;2022-10-15T05:30:54;96756.09;;;14.94;100.00
5954;BME280;3002;42.642;24.812;2022-10-15T05:33:20;96762.88;;;15.14;100.00
5954;BME280;3002;42.642;24.812;2022-10-15T05:35:45;96765.06;;;15.35;100.00
5954;BME280;3002;42.642;24.812;2022-10-15T05:38:11;96766.16;;;15.34;100.00
5954;BME280;3002;42.642;24.812;2022-10-15T05:40:36;96772.75;;;15.41;100.00
5954;BME280;3002;42.642;24.812;2022-10-15T05:43:02;96780.75;;;15.24;100.00
5954;BME280;3002;42.642;24.812;2022-10-15T05:45:28;96781.00;;;15.67;100.00
5954;BME280;3002;42.642;24.812;2022-10-15T05:47:54;96781.41;;;16.00;100.00
5954;BME280;3002;42.642;24.812;2022-10-15T05:50:21;96773.09;;;16.45;100.00
5954;BME280;3002;42.642;24.812;2022-10-15T05:52:47;96783.84;;;16.11;100.00
5954;BME280;3002;42.642;24.812;2022-10-15T05:55:12;96789.16;;;16.33;100.00
5954;BME280;3002;42.642;24.812;2022-10-15T05:57:37;96778.34;;;16.50;100.00
5954;BME280;3002;42.642;24.812;2022-10-15T06:00:05;96775.50;;;16.90;100.00
5954;BME280;3002;42.642;24.812;2022-10-15T06:02:30;96773.13;;;16.89;100.00
5954;BME280;3002;42.642;24.812;2022-10-15T06:04:56;96774.53;;;16.95;100.00
5954;BME280;3002;42.642;24.812;2022-10-15T06:07:21;96774.19;;;17.22;100.00
5954;BME280;3002;42.642;24.812;2022-10-15T06:09:47;96775.63;;;17.20;100.00
5954;BME280;3002;42.642;24.812;2022-10-15T06:12:12;96777.78;;;17.52;99.92
5954;BME280;3002;42.642;24.812;2022-10-15T06:14:38;96780.75;;;17.77;96.14
5954;BME280;3002;42.642;24.812;2022-10-15T06:17:03;96779.41;;;17.91;96.48
5954;BME280;3002;42.642;24.812;2022-10-15T06:19:28;96775.63;;;18.13;94.40
5954;BME280;3002;42.642;24.812;2022-10-15T06:21:54;96787.81;;;18.28;89.58
5954;BME280;3002;42.642;24.812;2022-10-15T06:24:19;96781.22;;;18.38;91.95
5954;BME280;3002;42.642;24.812;2022-10-15T06:26:45;96784.59;;;18.35;91.31
5954;BME280;3002;42.642;24.812;2022-10-15T06:29:10;96794.28;;;18.44;89.14
5954;BME280;3002;42.642;24.812;2022-10-15T06:31:36;96793.63;;;18.48;90.77
5954;BME280;3002;42.642;24.812;2022-10-15T06:34:01;96793.91;;;18.55;91.80
5954;BME280;3002;42.642;24.812;2022-10-15T06:36:27;96803.03;;;18.50;87.71
5954;BME280;3002;42.642;24.812;2022-10-15T06:38:52;96797.44;;;18.46;84.92
5954;BME280;3002;42.642;24.812;2022-10-15T06:41:18;96802.97;;;18.59;84.59
5954;BME280;3002;42.642;24.812;2022-10-15T06:43:43;96804.91;;;19.21;80.92
5954;BME280;3002;42.642;24.812;2022-10-15T06:46:12;96808.38;;;20.00;76.31
5954;BME280;3002;42.642;24.812;2022-10-15T06:48:37;96809.69;;;21.20;70.32
5954;BME280;3002;42.642;24.812;2022-10-15T06:51:03;96811.00;;;23.38;60.87
5954;BME280;3002;42.642;24.812;2022-10-15T06:53:29;96802.03;;;24.82;58.02
5954;BME280;3002;42.642;24.812;2022-10-15T06:55:56;96805.28;;;22.54;63.88
5954;BME280;3002;42.642;24.812;2022-10-15T06:58:22;96804.56;;;22.37;66.91
5954;BME280;3002;42.642;24.812;2022-10-15T07:00:47;96814.19;;;25.08;56.82
5954;BME280;3002;42.642;24.812;2022-10-15T07:03:13;96812.50;;;26.52;52.17
5954;BME280;3002;42.642;24.812;2022-10-15T07:05:39;96819.63;;;27.40;49.34
5954;BME280;3002;42.642;24.812;2022-10-15T07:08:04;96814.88;;;27.27;48.54
5954;BME280;3002;42.642;24.812;2022-10-15T07:10:30;96815.13;;;27.04;49.60
5954;BME280;3002;42.642;24.812;2022-10-15T07:12:58;96812.53;;;27.39;46.38
5954;BME280;3002;42.642;24.812;2022-10-15T07:15:24;96807.19;;;28.53;43.51
5954;BME280;3002;42.642;24.812;2022-10-15T07:17:51;96816.06;;;27.33;46.46
5954;BME280;3002;42.642;24.812;2022-10-15T07:20:18;96813.88;;;27.88;45.17
5954;BME280;3002;42.642;24.812;2022-10-15T07:22:44;96807.16;;;28.71;44.29
5954;BME280;3002;42.642;24.812;2022-10-15T07:25:10;96797.28;;;24.00;55.48
5954;BME280;3002;42.642;24.812;2022-10-15T07:27:37;96797.03;;;23.86;56.38
5954;BME280;3002;42.642;24.812;2022-10-15T07:30:04;96800.16;;;26.98;48.27
5954;BME280;3002;42.642;24.812;2022-10-15T07:32:29;96796.97;;;25.82;50.83
5954;BME280;3002;42.642;24.812;2022-10-15T07:34:55;96800.28;;;25.61;52.29
5954;BME280;3002;42.642;24.812;2022-10-15T07:37:20;96795.03;;;23.40;56.29
5954;BME280;3002;42.642;24.812;2022-10-15T07:39:46;96801.50;;;23.52;57.86
5954;BME280;3002;42.642;24.812;2022-10-15T07:42:11;96804.47;;;26.95;48.75
5954;BME280;3002;42.642;24.812;2022-10-15T07:44:37;96807.19;;;28.28;45.56
5954;BME280;3002;42.642;24.812;2022-10-15T07:47:02;96795.28;;;26.66;47.78
5954;BME280;3002;42.642;24.812;2022-10-15T07:49:27;96793.47;;;26.36;49.37
5954;BME280;3002;42.642;24.812;2022-10-15T07:51:53;96803.09;;;26.60;49.88
5954;BME280;3002;42.642;24.812;2022-10-15T07:54:18;96798.97;;;25.14;50.16
5954;BME280;3002;42.642;24.812;2022-10-15T07:56:44;96798.09;;;25.77;50.29
5954;BME280;3002;42.642;24.812;2022-10-15T07:59:09;96801.13;;;26.57;47.88
5954;BME280;3002;42.642;24.812;2022-10-15T08:01:35;96808.00;;;28.08;43.75
5954;BME280;3002;42.642;24.812;2022-10-15T08:04:00;96803.63;;;25.10;49.76
5954;BME280;3002;42.642;24.812;2022-10-15T08:06:26;96800.63;;;24.92;52.66
5954;BME280;3002;42.642;24.812;2022-10-15T08:08:51;96810.06;;;27.09;47.51
5954;BME280;3002;42.642;24.812;2022-10-15T08:11:16;96808.78;;;26.92;47.00
5954;BME280;3002;42.642;24.812;2022-10-15T08:13:43;96804.81;;;27.88;43.94
5954;BME280;3002;42.642;24.812;2022-10-15T08:16:10;96800.06;;;28.77;41.19
5954;BME280;3002;42.642;24.812;2022-10-15T08:18:36;96803.41;;;29.46;40.37
5954;BME280;3002;42.642;24.812;2022-10-15T08:21:03;96803.91;;;26.64;45.29
5954;BME280;3002;42.642;24.812;2022-10-15T08:23:30;96809.38;;;25.69;48.34
5954;BME280;3002;42.642;24.812;2022-10-15T08:25:59;96809.47;;;25.08;49.39
5954;BME280;3002;42.642;24.812;2022-10-15T08:28:29;96803.47;;;26.55;46.13
5954;BME280;3002;42.642;24.812;2022-10-15T08:30:59;96813.03;;;27.59;43.11
5954;BME280;3002;42.642;24.812;2022-10-15T08:33:26;96807.94;;;28.93;40.46
5954;BME280;3002;42.642;24.812;2022-10-15T08:35:52;96809.81;;;29.18;39.34
5954;BME280;3002;42.642;24.812;2022-10-15T08:38:17;96807.44;;;30.00;36.97
5954;BME280;3002;42.642;24.812;2022-10-15T08:40:54;96810.59;;;24.47;48.86
5954;BME280;3002;42.642;24.812;2022-10-15T08:46:00;96810.56;;;25.04;47.43
5954;BME280;3002;42.642;24.812;2022-10-15T08:48:32;96813.22;;;23.71;49.97
5954;BME280;3002;42.642;24.812;2022-10-15T08:51:12;96814.13;;;22.98;50.76
5954;BME280;3002;42.642;24.812;2022-10-15T08:53:46;96815.78;;;22.67;51.92
5954;BME280;3002;42.642;24.812;2022-10-15T09:01:31;96817.06;;;21.31;57.12
5954;BME280;3002;42.642;24.812;2022-10-15T09:06:38;96827.34;;;21.66;56.16
5954;BME280;3002;42.642;24.812;2022-10-15T09:09:19;96819.41;;;21.77;55.81
5954;BME280;3002;42.642;24.812;2022-10-15T09:14:32;96818.22;;;21.90;56.42
5954;BME280;3002;42.642;24.812;2022-10-15T09:17:23;96829.56;;;21.92;55.43
5954;BME280;3002;42.642;24.812;2022-10-15T09:19:51;96828.13;;;20.70;60.24
5954;BME280;3002;42.642;24.812;2022-10-15T09:22:23;96826.31;;;20.38;62.08
5954;BME280;3002;42.642;24.812;2022-10-15T09:24:50;96827.66;;;19.95;63.03
5954;BME280;3002;42.642;24.812;2022-10-15T09:32:46;96838.34;;;20.49;62.10
5954;BME280;3002;42.642;24.812;2022-10-15T09:35:25;96832.53;;;20.63;62.42
5954;BME280;3002;42.642;24.812;2022-10-15T09:37:58;96831.53;;;20.30;63.36
5954;BME280;3002;42.642;24.812;2022-10-15T09:40:38;96824.06;;;20.64;64.36
5954;BME280;3002;42.642;24.812;2022-10-15T09:43:09;96826.22;;;20.22;67.08
5954;BME280;3002;42.642;24.812;2022-10-15T09:45:36;96820.88;;;21.02;65.97
5954;BME280;3002;42.642;24.812;2022-10-15T09:48:18;96823.88;;;21.25;65.13
5954;BME280;3002;42.642;24.812;2022-10-15T09:56:38;96815.78;;;21.29;62.40
5954;BME280;3002;42.642;24.812;2022-10-15T09:59:15;96808.53;;;21.21;61.41
5954;BME280;3002;42.642;24.812;2022-10-15T10:01:56;96807.72;;;21.32;60.37
5954;BME280;3002;42.642;24.812;2022-10-15T10:04:25;96808.13;;;21.62;59.38
5954;BME280;3002;42.642;24.812;2022-10-15T10:06:54;96810.94;;;21.50;59.53
5954;BME280;3002;42.642;24.812;2022-10-15T10:09:22;96811.38;;;21.24;60.40
5954;BME280;3002;42.642;24.812;2022-10-15T10:11:53;96818.56;;;21.45;59.07
5954;BME280;3002;42.642;24.812;2022-10-15T10:17:09;96818.78;;;21.68;57.74
5954;BME280;3002;42.642;24.812;2022-10-15T10:19:38;96816.03;;;21.52;58.98
5954;BME280;3002;42.642;24.812;2022-10-15T10:22:16;96809.63;;;21.60;57.15
5954;BME280;3002;42.642;24.812;2022-10-15T10:24:42;96809.56;;;22.04;56.88
5954;BME280;3002;42.642;24.812;2022-10-15T10:27:18;96809.75;;;22.11;54.82
5954;BME280;3002;42.642;24.812;2022-10-15T10:29:48;96814.28;;;22.54;55.71
5954;BME280;3002;42.642;24.812;2022-10-15T10:32:29;96807.88;;;22.47;54.70
5954;BME280;3002;42.642;24.812;2022-10-15T10:34:57;96815.75;;;23.03;53.05
5954;BME280;3002;42.642;24.812;2022-10-15T10:37:24;96810.53;;;21.80;52.89
5954;BME280;3002;42.642;24.812;2022-10-15T10:39:55;96801.56;;;21.95;53.85
5954;BME280;3002;42.642;24.812;2022-10-15T10:44:52;96798.22;;;23.04;50.95
5954;BME280;3002;42.642;24.812;2022-10-15T10:47:20;96803.06;;;23.72;49.71
5954;BME280;3002;42.642;24.812;2022-10-15T10:49:56;96800.22;;;24.64;44.62
5954;BME280;3002;42.642;24.812;2022-10-15T10:52:35;96795.25;;;24.20;44.89
5954;BME280;3002;42.642;24.812;2022-10-15T10:55:30;96798.47;;;24.25;43.66
5954;BME280;3002;42.642;24.812;2022-10-15T10:57:58;96790.56;;;23.97;46.35
5954;BME280;3002;42.642;24.812;2022-10-15T11:00:32;96794.88;;;23.33;45.34
5954;BME280;3002;42.642;24.812;2022-10-15T11:03:00;96780.09;;;23.57;46.05
5954;BME280;3002;42.642;24.812;2022-10-15T11:05:27;96782.78;;;23.76;46.47
5954;BME280;3002;42.642;24.812;2022-10-15T11:13:37;96786.16;;;23.08;46.40
5954;BME280;3002;42.642;24.812;2022-10-15T11:16:22;96794.63;;;25.84;43.70
5954;BME280;3002;42.642;24.812;2022-10-15T11:18:59;96783.78;;;27.19;41.34
5954;BME280;3002;42.642;24.812;2022-10-15T11:24:18;96783.97;;;25.42;42.11
5954;BME280;3002;42.642;24.812;2022-10-15T11:32:51;96780.91;;;23.19;47.48
5954;BME280;3002;42.642;24.812;2022-10-15T11:35:29;96781.19;;;23.14;46.07
5954;BME280;3002;42.642;24.812;2022-10-15T11:46:37;96771.00;;;22.56;46.22
5954;BME280;3002;42.642;24.812;2022-10-15T11:49:28;96776.38;;;22.53;46.85
5954;BME280;3002;42.642;24.812;2022-10-15T11:52:39;96781.44;;;22.51;46.94
5954;BME280;3002;42.642;24.812;2022-10-15T11:55:34;96777.00;;;22.62;48.52
5954;BME280;3002;42.642;24.812;2022-10-15T11:58:06;96774.59;;;22.25;48.82
5954;BME280;3002;42.642;24.812;2022-10-15T12:00:57;96777.97;;;22.54;49.58
5954;BME280;3002;42.642;24.812;2022-10-15T12:03:29;96780.94;;;22.64;50.05
5954;BME280;3002;42.642;24.812;2022-10-15T12:06:09;96784.50;;;22.14;51.04
5954;BME280;3002;42.642;24.812;2022-10-15T12:08:38;96776.44;;;21.58;54.02
5954;BME280;3002;42.642;24.812;2022-10-15T12:16:29;96781.72;;;22.30;54.39
5954;BME280;3002;42.642;24.812;2022-10-15T12:29:47;96786.03;;;22.31;51.44
5954;BME280;3002;42.642;24.812;2022-10-15T12:32:40;96781.28;;;22.43;51.55
5954;BME280;3002;42.642;24.812;2022-10-15T12:35:34;96786.06;;;22.15;51.10
5954;BME280;3002;42.642;24.812;2022-10-15T12:38:23;96796.69;;;21.88;51.44
5954;BME280;3002;42.642;24.812;2022-10-15T12:40:55;96789.50;;;21.96;51.67
5954;BME280;3002;42.642;24.812;2022-10-15T12:43:21;96793.28;;;21.91;50.97
5954;BME280;3002;42.642;24.812;2022-10-15T12:45:53;96787.19;;;21.98;51.27
5954;BME280;3002;42.642;24.812;2022-10-15T12:53:43;96793.53;;;21.86;52.40
5954;BME280;3002;42.642;24.812;2022-10-15T12:56:12;96785.78;;;22.04;53.84
5954;BME280;3002;42.642;24.812;2022-10-15T13:06:32;96799.69;;;21.99;54.22
5954;BME280;3002;42.642;24.812;2022-10-15T13:11:50;96790.91;;;21.30;58.00
5954;BME280;3002;42.642;24.812;2022-10-15T13:16:47;96786.09;;;21.40;57.28
5954;BME280;3002;42.642;24.812;2022-10-15T13:19:37;96787.59;;;20.97;56.94
5954;BME280;3002;42.642;24.812;2022-10-15T13:22:05;96782.50;;;20.95;57.75
5954;BME280;3002;42.642;24.812;2022-10-15T13:24:43;96788.97;;;20.50;59.46
5954;BME280;3002;42.642;24.812;2022-10-15T13:27:30;96787.81;;;20.76;58.52
5954;BME280;3002;42.642;24.812;2022-10-15T13:29:59;96783.94;;;21.05;58.03
5954;BME280;3002;42.642;24.812;2022-10-15T13:32:27;96781.00;;;20.98;56.02
5954;BME280;3002;42.642;24.812;2022-10-15T13:34:54;96783.09;;;21.17;57.09
5954;BME280;3002;42.642;24.812;2022-10-15T13:37:31;96802.63;;;21.31;57.15
5954;BME280;3002;42.642;24.812;2022-10-15T13:39:58;96784.63;;;21.02;57.52
5954;BME280;3002;42.642;24.812;2022-10-15T13:42:25;96794.00;;;20.89;56.73
5954;BME280;3002;42.642;24.812;2022-10-15T13:45:01;96796.53;;;20.81;56.37
5954;BME280;3002;42.642;24.812;2022-10-15T13:47:33;96791.41;;;20.80;57.60
5954;BME280;3002;42.642;24.812;2022-10-15T13:50:28;96795.47;;;20.86;58.50
5954;BME280;3002;42.642;24.812;2022-10-15T13:53:34;96785.28;;;20.83;59.67
5954;BME280;3002;42.642;24.812;2022-10-15T13:56:03;96796.66;;;20.73;59.31
5954;BME280;3002;42.642;24.812;2022-10-15T13:58:39;96790.72;;;20.83;59.62
5954;BME280;3002;42.642;24.812;2022-10-15T14:03:49;96800.09;;;20.98;58.99
5954;BME280;3002;42.642;24.812;2022-10-15T14:06:29;96803.03;;;21.05;60.79
5954;BME280;3002;42.642;24.812;2022-10-15T14:08:57;96801.84;;;21.18;63.30
5954;BME280;3002;42.642;24.812;2022-10-15T14:11:24;96796.16;;;21.23;63.40
5954;BME280;3002;42.642;24.812;2022-10-15T14:13:52;96797.75;;;21.24;64.97
5954;BME280;3002;42.642;24.812;2022-10-15T14:16:39;96794.28;;;21.27;62.37
5954;BME280;3002;42.642;24.812;2022-10-15T14:21:32;96794.38;;;21.43;63.65
5954;BME280;3002;42.642;24.812;2022-10-15T14:26:32;96799.41;;;21.01;55.35
5954;BME280;3002;42.642;24.812;2022-10-15T14:28:59;96799.59;;;20.80;55.28
5954;BME280;3002;42.642;24.812;2022-10-15T14:33:59;96790.53;;;21.04;54.42
5954;BME280;3002;42.642;24.812;2022-10-15T14:36:30;96793.19;;;20.48;53.94
5954;BME280;3002;42.642;24.812;2022-10-15T14:44:47;96791.09;;;20.45;56.19
5954;BME280;3002;42.642;24.812;2022-10-15T14:47:20;96786.72;;;20.52;53.87
5954;BME280;3002;42.642;24.812;2022-10-15T14:49:47;96795.75;;;19.71;55.74
5954;BME280;3002;42.642;24.812;2022-10-15T14:52:15;96795.06;;;18.75;57.59
5954;BME280;3002;42.642;24.812;2022-10-15T14:54:47;96792.00;;;19.63;56.33
5954;BME280;3002;42.642;24.812;2022-10-15T14:57:24;96796.25;;;20.46;55.51
5954;BME280;3002;42.642;24.812;2022-10-15T14:59:52;96789.41;;;19.34;55.58
5954;BME280;3002;42.642;24.812;2022-10-15T15:02:23;96790.91;;;20.13;54.99
5954;BME280;3002;42.642;24.812;2022-10-15T15:07:39;96792.84;;;19.88;55.89
5954;BME280;3002;42.642;24.812;2022-10-15T15:10:06;96785.59;;;19.47;55.08
5954;BME280;3002;42.642;24.812;2022-10-15T15:12:33;96793.06;;;19.95;53.94
5954;BME280;3002;42.642;24.812;2022-10-15T15:14:59;96794.06;;;20.03;54.39
5954;BME280;3002;42.642;24.812;2022-10-15T15:17:27;96800.03;;;19.60;54.36
5954;BME280;3002;42.642;24.812;2022-10-15T15:19:54;96789.59;;;19.49;54.37
5954;BME280;3002;42.642;24.812;2022-10-15T15:24:50;96792.41;;;17.77;59.17
5954;BME280;3002;42.642;24.812;2022-10-15T15:27:26;96790.59;;;18.70;58.22
5954;BME280;3002;42.642;24.812;2022-10-15T15:29:53;96791.53;;;18.95;59.34
5954;BME280;3002;42.642;24.812;2022-10-15T15:32:19;96796.94;;;19.16;59.24
5954;BME280;3002;42.642;24.812;2022-10-15T15:34:45;96793.13;;;18.75;60.85
5954;BME280;3002;42.642;24.812;2022-10-15T15:37:14;96799.34;;;17.96;66.25
5954;BME280;3002;42.642;24.812;2022-10-15T15:39:40;96794.88;;;17.91;68.05
5954;BME280;3002;42.642;24.812;2022-10-15T15:42:05;96803.63;;;18.05;64.17